Time;durP1;ratioP1;P1;durP2;ratioP2;P2;SDS_P1;SDS_P2;PMS_P1;PMS_P2;Temp;Humidity;BMP_temperature;BMP_pressure;BME280_temperature;BME280_humidity;BME280_pressure;Samples;Min_cycle;Max_cycle;Signal;HPM_P1;HPM_P2
2022/10/31 00:01:30;;;;;;;24.92;13.75;;;13.30;99.90;;;;;;4940111;28;89858;-29
2022/10/31 00:03:56;;;;;;;26.70;16.33;;;13.30;99.90;;;;;;4938713;28;89674;-30
2022/10/31 00:06:22;;;;;;;18.63;13.30;;;13.20;99.90;;;;;;4939201;28;89997;-29
2022/10/31 00:08:56;;;;;;;21.48;13.50;;;13.20;99.90;;;;;;4939015;28;89272;-28
2022/10/31 00:11:22;;;;;;;23.70;15.05;;;13.10;99.90;;;;;;4939316;28;90297;-29
2022/10/31 00:13:48;;;;;;;17.48;13.90;;;13.10;99.90;;;;;;4939698;28;89617;-28
2022/10/31 00:16:21;;;;;;;15.32;12.73;;;13.00;99.90;;;;;;4938934;28;88842;-31
2022/10/31 00:19:06;;;;;;;22.40;14.55;;;13.00;99.90;;;;;;4939232;28;89247;-31
2022/10/31 00:21:33;;;;;;;18.95;12.68;;;12.90;99.90;;;;;;4938710;28;90282;-28
2022/10/31 00:23:59;;;;;;;18.08;15.23;;;12.90;99.90;;;;;;4939045;28;88785;-30
2022/10/31 00:26:27;;;;;;;26.00;13.93;;;12.90;99.90;;;;;;4939644;28;89738;-32
2022/10/31 00:28:53;;;;;;;24.50;15.38;;;12.80;99.90;;;;;;4938900;28;89510;-29
2022/10/31 00:31:18;;;;;;;19.67;15.73;;;12.70;99.90;;;;;;4938715;28;90315;-30
2022/10/31 00:33:44;;;;;;;23.30;14.32;;;12.70;99.90;;;;;;4939195;28;89978;-31
2022/10/31 00:36:16;;;;;;;27.92;17.38;;;12.70;99.90;;;;;;4938400;28;89379;-28
2022/10/31 00:38:42;;;;;;;22.17;17.05;;;12.70;99.90;;;;;;4938954;28;89872;-29
2022/10/31 00:41:08;;;;;;;22.35;16.95;;;12.70;99.90;;;;;;4938747;28;89413;-29
2022/10/31 00:43:34;;;;;;;21.33;15.45;;;12.70;99.90;;;;;;4939911;28;91446;-30
2022/10/31 00:46:00;;;;;;;20.30;16.52;;;12.60;99.90;;;;;;4942046;28;90545;-29
2022/10/31 00:48:25;;;;;;;20.92;15.63;;;12.60;99.90;;;;;;4942475;28;90423;-30
2022/10/31 00:50:51;;;;;;;21.83;17.52;;;12.60;99.90;;;;;;4942273;28;89782;-29
2022/10/31 00:53:16;;;;;;;24.63;16.90;;;12.60;99.90;;;;;;4941951;28;89822;-27
2022/10/31 00:55:42;;;;;;;21.95;17.35;;;12.60;99.90;;;;;;4942630;28;89501;-28
2022/10/31 00:58:07;;;;;;;24.02;17.60;;;12.60;99.90;;;;;;4942028;28;89111;-29
2022/10/31 01:00:33;;;;;;;27.65;19.30;;;12.60;99.90;;;;;;4942928;28;90365;-28
2022/10/31 01:02:59;;;;;;;26.73;17.85;;;12.50;99.90;;;;;;4941235;28;89442;-29
2022/10/31 01:05:24;;;;;;;26.95;18.52;;;12.50;99.90;;;;;;4942659;28;88610;-32
2022/10/31 01:07:50;;;;;;;24.25;16.90;;;12.50;99.90;;;;;;4942518;28;90329;-31
2022/10/31 01:10:17;;;;;;;24.13;17.05;;;12.50;99.90;;;;;;4941667;28;89415;-33
2022/10/31 01:12:46;;;;;;;21.42;13.35;;;12.50;99.90;;;;;;4942066;28;89565;-32
2022/10/31 01:15:12;;;;;;;;;;;12.50;99.90;;;;;;4942854;28;89670;-28
2022/10/31 01:17:38;;;;;;;26.58;17.48;;;12.40;99.90;;;;;;4944177;28;88565;-31
2022/10/31 01:20:06;;;;;;;21.77;16.52;;;12.40;99.90;;;;;;4942113;28;91012;-29
2022/10/31 01:22:33;;;;;;;29.95;17.17;;;12.30;99.90;;;;;;4941954;28;90726;-31
2022/10/31 01:24:58;;;;;;;18.65;14.82;;;12.30;99.90;;;;;;4941220;28;91236;-29
2022/10/31 01:27:24;;;;;;;23.48;17.08;;;12.30;99.90;;;;;;4941756;28;88346;-30
2022/10/31 01:29:49;;;;;;;26.95;16.23;;;12.30;99.90;;;;;;4941462;28;90385;-29
2022/10/31 01:32:15;;;;;;;25.30;15.63;;;12.20;99.90;;;;;;4941078;28;90643;-28
2022/10/31 01:34:40;;;;;;;22.38;16.27;;;12.20;99.90;;;;;;4940784;28;90490;-31
2022/10/31 01:37:06;;;;;;;22.65;16.20;;;12.20;99.90;;;;;;4940673;28;88351;-31
2022/10/31 01:39:32;;;;;;;23.33;17.58;;;12.20;99.90;;;;;;4941581;28;90143;-29
2022/10/31 01:41:57;;;;;;;23.10;16.60;;;12.20;99.90;;;;;;4941775;28;90909;-28
2022/10/31 01:44:23;;;;;;;28.20;17.17;;;12.20;99.90;;;;;;4941408;28;90226;-31
2022/10/31 01:47:06;;;;;;;20.65;16.50;;;12.20;99.90;;;;;;4941296;28;88210;-29
2022/10/31 01:49:41;;;;;;;24.83;15.75;;;12.20;99.90;;;;;;4941525;28;90968;-32
2022/10/31 01:52:13;;;;;;;22.08;17.90;;;12.30;99.90;;;;;;4941505;28;89305;-29
2022/10/31 01:54:47;;;;;;;24.48;16.10;;;12.30;99.90;;;;;;4940375;28;91324;-34
2022/10/31 01:57:15;;;;;;;25.27;17.23;;;12.30;99.90;;;;;;4941005;28;89949;-28
2022/10/31 01:59:44;;;;;;;25.50;16.98;;;12.30;99.90;;;;;;4940404;28;90321;-29
2022/10/31 02:02:11;;;;;;;22.55;15.27;;;12.30;99.90;;;;;;4939401;28;90308;-29
2022/10/31 02:04:38;;;;;;;20.85;16.50;;;12.30;99.90;;;;;;4940784;28;89537;-30
2022/10/31 02:07:25;;;;;;;19.70;14.45;;;12.30;99.90;;;;;;4941455;28;89594;-28
2022/10/31 02:09:52;;;;;;;20.92;15.57;;;12.30;99.90;;;;;;4940693;28;90299;-29
2022/10/31 02:12:19;;;;;;;18.25;13.98;;;12.30;99.90;;;;;;4940443;28;89314;-29
2022/10/31 02:14:46;;;;;;;21.45;16.67;;;12.20;99.90;;;;;;4941138;28;90621;-28
2022/10/31 02:17:12;;;;;;;27.90;16.85;;;12.20;99.90;;;;;;4941309;28;89035;-31
2022/10/31 02:20:02;;;;;;;21.73;13.88;;;12.20;99.90;;;;;;4940934;28;90759;-30
2022/10/31 02:22:45;;;;;;;22.45;16.35;;;12.10;99.90;;;;;;4939610;28;90422;-28
2022/10/31 02:25:32;;;;;;;19.02;15.77;;;12.10;99.90;;;;;;4941278;28;90576;-28
2022/10/31 02:28:25;;;;;;;19.73;16.35;;;12.00;99.90;;;;;;4941536;28;89988;-30
2022/10/31 02:31:28;;;;;;;24.73;16.42;;;11.90;99.90;;;;;;4940161;28;90043;-30
2022/10/31 02:34:01;;;;;;;23.23;15.95;;;11.90;99.90;;;;;;4940630;28;89294;-30
2022/10/31 02:37:08;;;;;;;17.08;14.73;;;11.80;99.90;;;;;;4939635;28;89565;-32
2022/10/31 02:39:41;;;;;;;20.90;15.88;;;11.80;99.90;;;;;;4937091;28;90031;-30
2022/10/31 02:42:31;;;;;;;17.80;14.55;;;11.70;99.90;;;;;;4941211;28;90704;-29
2022/10/31 02:45:25;;;;;;;19.75;14.50;;;11.70;99.90;;;;;;4940786;28;89603;-28
2022/10/31 02:47:55;;;;;;;21.08;12.95;;;11.60;99.90;;;;;;4939599;28;89117;-32
2022/10/31 02:50:26;;;;;;;21.70;15.23;;;11.50;99.90;;;;;;4940180;28;89368;-28
2022/10/31 02:52:52;;;;;;;21.38;15.85;;;11.50;99.90;;;;;;4940026;28;92274;-30
2022/10/31 02:55:27;;;;;;;20.30;15.32;;;11.40;99.90;;;;;;4940377;28;89755;-33
2022/10/31 02:57:57;;;;;;;17.58;13.98;;;11.40;99.90;;;;;;4940838;28;90112;-27
2022/10/31 03:00:22;;;;;;;26.67;15.85;;;11.40;99.90;;;;;;4940721;28;90084;-28
2022/10/31 03:03:11;;;;;;;24.55;16.02;;;11.30;99.90;;;;;;4939747;28;89137;-29
2022/10/31 03:05:48;;;;;;;26.83;15.30;;;11.30;99.90;;;;;;4939853;28;90069;-30
2022/10/31 03:08:32;;;;;;;16.02;14.10;;;11.20;99.90;;;;;;4940818;28;89511;-30
2022/10/31 03:11:06;;;;;;;20.02;14.50;;;11.20;99.90;;;;;;4939982;28;89572;-28
2022/10/31 03:13:35;;;;;;;18.65;14.63;;;11.20;99.90;;;;;;4939344;28;90320;-32
2022/10/31 03:16:32;;;;;;;20.00;15.40;;;11.10;99.90;;;;;;4939185;28;90795;-30
2022/10/31 03:19:10;;;;;;;23.27;17.15;;;11.10;99.90;;;;;;4940175;28;90740;-33
2022/10/31 03:22:01;;;;;;;24.87;16.43;;;11.10;99.90;;;;;;4940536;28;88604;-30
2022/10/31 03:24:31;;;;;;;18.08;14.77;;;11.10;99.90;;;;;;4939486;28;90069;-33
2022/10/31 03:27:00;;;;;;;24.58;15.48;;;11.00;99.90;;;;;;4939200;28;89828;-28
2022/10/31 03:29:29;;;;;;;19.50;13.65;;;11.00;99.90;;;;;;4939099;28;89406;-32
2022/10/31 03:31:59;;;;;;;20.80;15.15;;;11.00;99.90;;;;;;4940176;28;88192;-30
2022/10/31 03:34:25;;;;;;;18.05;15.82;;;11.00;99.90;;;;;;4939967;28;90490;-29
2022/10/31 03:36:55;;;;;;;24.08;16.08;;;11.00;99.90;;;;;;4939718;28;89472;-29
2022/10/31 03:39:23;;;;;;;23.33;16.52;;;11.00;99.90;;;;;;4939673;28;89857;-29
2022/10/31 03:42:07;;;;;;;21.05;16.10;;;10.90;99.90;;;;;;4939548;28;89347;-31
2022/10/31 03:44:35;;;;;;;17.90;16.00;;;10.90;99.90;;;;;;4939766;28;90111;-31
2022/10/31 03:47:02;;;;;;;31.23;19.47;;;10.90;99.90;;;;;;4939546;28;90152;-29
2022/10/31 03:49:29;;;;;;;28.13;17.23;;;10.90;99.90;;;;;;4940001;28;90309;-29
2022/10/31 03:52:20;;;;;;;18.70;16.13;;;10.90;99.90;;;;;;4939640;28;88863;-30
2022/10/31 03:54:51;;;;;;;21.75;16.42;;;10.90;99.90;;;;;;4940033;28;90492;-29
2022/10/31 03:57:33;;;;;;;19.10;16.33;;;10.80;99.90;;;;;;4940337;28;89651;-32
2022/10/31 04:00:09;;;;;;;19.50;16.33;;;10.80;99.90;;;;;;4939005;28;90005;-29
2022/10/31 04:02:40;;;;;;;17.75;14.43;;;10.70;99.90;;;;;;4939930;28;89279;-31
2022/10/31 04:05:08;;;;;;;20.15;17.38;;;10.60;99.90;;;;;;4939028;28;90755;-30
2022/10/31 04:07:38;;;;;;;19.23;15.60;;;10.60;99.90;;;;;;4939568;28;90635;-32
2022/10/31 04:10:07;;;;;;;24.88;14.90;;;10.50;99.90;;;;;;4939320;28;89398;-31
2022/10/31 04:12:35;;;;;;;14.20;12.73;;;10.50;99.90;;;;;;4939818;28;88828;-29
2022/10/31 04:15:03;;;;;;;25.42;15.98;;;10.40;99.90;;;;;;4939444;28;90330;-30
2022/10/31 04:17:33;;;;;;;17.67;15.20;;;10.40;99.90;;;;;;4939025;28;90981;-28
2022/10/31 04:20:00;;;;;;;19.73;16.85;;;10.40;99.90;;;;;;4941605;28;89401;-27
2022/10/31 04:22:26;;;;;;;20.38;15.82;;;10.40;99.90;;;;;;4942545;28;88578;-29
2022/10/31 04:24:51;;;;;;;17.35;15.43;;;10.40;99.90;;;;;;4942720;28;90582;-31
2022/10/31 04:27:17;;;;;;;18.52;15.05;;;10.30;99.90;;;;;;4942105;28;90437;-30
2022/10/31 04:29:42;;;;;;;18.63;13.85;;;10.30;99.90;;;;;;4942551;28;89562;-30
2022/10/31 04:32:08;;;;;;;16.17;14.48;;;10.20;99.90;;;;;;4941593;28;89293;-30
2022/10/31 04:34:33;;;;;;;32.00;15.63;;;10.20;99.90;;;;;;4942348;28;89849;-29
2022/10/31 04:36:59;;;;;;;18.58;16.25;;;10.20;99.90;;;;;;4976259;22;89871;-33
2022/10/31 04:39:25;;;;;;;17.88;16.02;;;10.10;99.90;;;;;;4942124;28;89670;-28
2022/10/31 04:41:50;;;;;;;19.55;17.45;;;10.10;99.90;;;;;;4943056;28;87618;-32
2022/10/31 04:44:16;;;;;;;15.05;13.30;;;10.00;99.90;;;;;;4942147;28;90225;-34
2022/10/31 04:46:41;;;;;;;17.65;14.35;;;9.90;99.90;;;;;;4942571;28;90322;-32
2022/10/31 04:49:07;;;;;;;15.20;13.30;;;9.90;99.90;;;;;;4942323;28;89928;-34
2022/10/31 04:51:33;;;;;;;15.35;12.57;;;9.90;99.90;;;;;;4942535;28;88199;-33
2022/10/31 04:53:58;;;;;;;20.75;12.93;;;9.90;99.90;;;;;;4942613;28;90667;-30
2022/10/31 04:56:24;;;;;;;17.17;15.15;;;9.80;99.90;;;;;;4941148;28;90991;-31
2022/10/31 04:58:49;;;;;;;16.73;14.93;;;9.80;99.90;;;;;;4942176;28;90591;-31
2022/10/31 05:01:15;;;;;;;16.98;13.23;;;9.80;99.90;;;;;;4941861;28;89363;-35
2022/10/31 05:03:40;;;;;;;16.98;15.05;;;9.70;99.90;;;;;;4941561;28;89095;-31
2022/10/31 05:06:07;;;;;;;21.75;15.85;;;9.70;99.90;;;;;;4941822;28;90342;-31
2022/10/31 05:08:33;;;;;;;18.15;14.25;;;9.60;99.90;;;;;;4942041;28;90128;-34
2022/10/31 05:11:02;;;;;;;17.58;15.15;;;9.50;99.90;;;;;;4942019;28;89650;-30
2022/10/31 05:13:29;;;;;;;16.60;14.27;;;9.60;99.90;;;;;;4942325;28;91045;-31
2022/10/31 05:15:54;;;;;;;16.60;14.82;;;9.50;99.90;;;;;;4941064;28;89849;-31
2022/10/31 05:18:20;;;;;;;23.50;18.05;;;9.60;99.90;;;;;;4942592;28;89582;-31
2022/10/31 05:20:46;;;;;;;19.08;16.20;;;9.50;99.90;;;;;;4941225;28;90704;-32
2022/10/31 05:23:12;;;;;;;28.48;17.15;;;9.50;99.90;;;;;;4941515;28;90267;-34
2022/10/31 05:25:39;;;;;;;18.48;16.58;;;9.40;99.90;;;;;;4941874;28;90029;-29
2022/10/31 05:28:04;;;;;;;23.20;16.13;;;9.40;99.90;;;;;;4941427;28;90618;-31
2022/10/31 05:30:31;;;;;;;18.70;16.25;;;9.40;99.90;;;;;;4941942;28;88778;-32
2022/10/31 05:32:57;;;;;;;19.85;15.30;;;9.30;99.90;;;;;;4941694;28;92367;-29
2022/10/31 05:35:25;;;;;;;17.55;15.63;;;9.30;99.90;;;;;;4941361;28;89603;-30
2022/10/31 05:37:51;;;;;;;25.45;18.45;;;9.30;99.90;;;;;;4940959;28;89509;-34
2022/10/31 05:40:18;;;;;;;18.85;16.40;;;9.30;99.90;;;;;;4940548;28;88465;-32
2022/10/31 05:42:44;;;;;;;18.00;15.25;;;9.20;99.90;;;;;;4941305;28;91876;-33
2022/10/31 05:45:13;;;;;;;15.55;13.68;;;9.20;99.90;;;;;;4940668;28;90523;-32
2022/10/31 05:47:38;;;;;;;15.20;13.75;;;9.20;99.90;;;;;;4941340;28;90361;-33
2022/10/31 05:50:06;;;;;;;15.95;13.05;;;9.10;99.90;;;;;;4941442;28;89443;-31
2022/10/31 05:52:32;;;;;;;14.48;11.50;;;9.10;99.90;;;;;;4940842;28;90482;-34
2022/10/31 05:54:57;;;;;;;14.40;11.50;;;9.00;99.90;;;;;;4940857;28;89598;-30
2022/10/31 05:57:23;;;;;;;15.02;13.50;;;8.90;99.90;;;;;;4941219;28;89439;-35
2022/10/31 05:59:52;;;;;;;16.27;12.70;;;8.80;99.90;;;;;;4940813;28;89119;-30
2022/10/31 06:02:18;;;;;;;16.27;12.85;;;8.80;99.90;;;;;;4940745;28;90547;-32
2022/10/31 06:04:44;;;;;;;17.00;14.63;;;8.80;99.90;;;;;;4940824;28;89639;-31
2022/10/31 06:07:10;;;;;;;18.23;14.50;;;8.70;99.90;;;;;;4941107;28;89972;-31
2022/10/31 06:09:35;;;;;;;17.23;15.43;;;8.80;99.90;;;;;;4940203;28;89222;-31
2022/10/31 06:12:01;;;;;;;19.70;14.77;;;8.70;99.90;;;;;;4940852;28;90166;-29
2022/10/31 06:14:26;;;;;;;17.90;13.35;;;8.70;99.90;;;;;;4940985;28;89640;-31
2022/10/31 06:16:53;;;;;;;29.05;15.98;;;8.70;99.90;;;;;;4939694;28;89651;-31
2022/10/31 06:19:19;;;;;;;21.50;16.23;;;8.70;99.90;;;;;;4940832;28;89685;-32
2022/10/31 06:21:44;;;;;;;19.17;14.40;;;8.70;99.90;;;;;;4940575;28;90048;-30
2022/10/31 06:24:10;;;;;;;18.73;13.00;;;8.70;99.90;;;;;;4939985;28;89742;-31
2022/10/31 06:26:35;;;;;;;19.38;14.27;;;8.70;99.90;;;;;;4940548;28;89315;-31
2022/10/31 06:29:01;;;;;;;19.80;14.43;;;8.60;99.90;;;;;;4939669;28;88606;-31
2022/10/31 06:31:27;;;;;;;17.20;15.43;;;8.60;99.90;;;;;;4940076;28;91472;-31
2022/10/31 06:33:52;;;;;;;12.90;11.70;;;8.60;99.90;;;;;;4939487;28;90695;-27
2022/10/31 06:36:18;;;;;;;15.30;12.73;;;8.50;99.90;;;;;;4940037;28;89898;-28
2022/10/31 06:38:43;;;;;;;16.80;13.63;;;8.50;99.90;;;;;;4939509;28;89153;-29
2022/10/31 06:41:09;;;;;;;16.50;12.80;;;8.50;99.90;;;;;;4939239;28;91289;-31
2022/10/31 06:43:34;;;;;;;15.88;11.70;;;8.50;99.90;;;;;;4940365;28;88838;-30
2022/10/31 06:46:04;;;;;;;12.48;11.25;;;8.40;99.90;;;;;;4938694;28;89497;-29
2022/10/31 06:48:30;;;;;;;15.13;10.45;;;8.40;99.90;;;;;;4939664;28;89675;-27
2022/10/31 06:50:59;;;;;;;10.38;9.38;;;8.40;99.90;;;;;;4939271;28;90032;-30
2022/10/31 06:53:26;;;;;;;16.55;9.77;;;8.40;99.90;;;;;;4940979;28;89653;-32
2022/10/31 06:55:52;;;;;;;10.32;8.73;;;8.40;99.90;;;;;;4940883;28;89512;-29
2022/10/31 06:58:17;;;;;;;12.80;11.57;;;8.40;99.90;;;;;;4940034;28;88607;-29
2022/10/31 07:00:43;;;;;;;12.70;11.38;;;8.40;99.90;;;;;;4939621;28;90335;-29
2022/10/31 07:03:13;;;;;;;14.43;13.13;;;8.40;99.90;;;;;;4939733;28;91337;-29
2022/10/31 07:05:39;;;;;;;14.95;12.50;;;8.40;99.90;;;;;;4940213;28;90129;-30
2022/10/31 07:08:08;;;;;;;16.85;13.07;;;8.40;99.90;;;;;;4939847;28;88059;-28
2022/10/31 07:10:34;;;;;;;;;;;8.40;99.90;;;;;;4941111;28;90387;-28
2022/10/31 07:13:02;;;;;;;15.95;14.25;;;8.30;99.90;;;;;;4942003;28;91844;-28
2022/10/31 07:15:32;;;;;;;26.42;19.08;;;8.30;99.90;;;;;;4939517;28;89133;-30
2022/10/31 07:18:02;;;;;;;23.45;19.30;;;8.30;99.90;;;;;;4940285;28;89471;-31
2022/10/31 07:20:28;;;;;;;20.88;17.20;;;8.30;99.90;;;;;;4939994;28;92275;-29
2022/10/31 07:22:54;;;;;;;22.25;19.38;;;8.30;99.90;;;;;;4938290;28;90132;-28
2022/10/31 07:25:20;;;;;;;23.30;19.05;;;8.30;99.90;;;;;;4939990;28;91720;-28
2022/10/31 07:27:46;;;;;;;25.27;20.77;;;8.30;99.90;;;;;;4937370;28;88937;-31
2022/10/31 07:30:12;;;;;;;20.00;16.95;;;8.30;99.90;;;;;;4936706;28;90371;-29
2022/10/31 07:32:39;;;;;;;64.88;20.80;;;8.20;99.90;;;;;;4938058;28;90287;-30
2022/10/31 07:35:06;;;;;;;63.78;17.73;;;8.20;99.90;;;;;;4936745;28;89988;-28
2022/10/31 07:37:31;;;;;;;29.05;12.10;;;8.20;99.90;;;;;;4937365;28;89113;-32
2022/10/31 07:39:57;;;;;;;28.27;10.73;;;8.10;99.90;;;;;;4934986;28;90274;-29
2022/10/31 07:42:23;;;;;;;9.13;8.27;;;8.10;99.90;;;;;;4937355;28;89055;-28
2022/10/31 07:44:48;;;;;;;14.98;11.43;;;8.00;99.90;;;;;;4937735;28;89402;-29
2022/10/31 07:47:14;;;;;;;33.03;14.52;;;8.00;99.90;;;;;;4937192;28;89837;-29
2022/10/31 07:49:39;;;;;;;16.13;12.57;;;8.00;99.90;;;;;;4937398;28;90329;-33
2022/10/31 07:52:05;;;;;;;30.38;17.45;;;8.00;99.90;;;;;;4936433;28;89798;-29
2022/10/31 07:54:30;;;;;;;22.77;17.10;;;8.10;99.90;;;;;;4936433;28;90008;-32
2022/10/31 07:56:56;;;;;;;34.95;16.77;;;8.20;99.90;;;;;;4937137;28;89706;-29
2022/10/31 07:59:22;;;;;;;43.00;16.48;;;8.30;99.90;;;;;;4936476;28;90765;-28
2022/10/31 08:01:47;;;;;;;48.30;20.33;;;8.30;99.90;;;;;;4936980;28;89705;-28
2022/10/31 08:04:13;;;;;;;22.38;17.40;;;8.50;99.90;;;;;;4935984;28;89327;-29
2022/10/31 08:06:38;;;;;;;31.85;21.20;;;8.60;99.90;;;;;;4937133;28;89837;-28
2022/10/31 08:09:04;;;;;;;40.13;16.85;;;8.60;99.90;;;;;;4935820;28;90490;-29
2022/10/31 08:11:29;;;;;;;43.40;18.63;;;8.70;99.90;;;;;;4936129;28;90566;-29
2022/10/31 08:13:55;;;;;;;62.60;19.55;;;8.90;99.90;;;;;;4936207;28;91408;-31
2022/10/31 08:16:21;;;;;;;48.63;19.92;;;8.90;99.90;;;;;;4936299;28;88365;-29
2022/10/31 08:18:47;;;;;;;23.60;19.55;;;9.00;99.90;;;;;;4936625;28;89863;-30
2022/10/31 08:21:13;;;;;;;24.02;16.48;;;9.10;99.90;;;;;;4936419;28;89857;-31
2022/10/31 08:23:38;;;;;;;35.28;21.52;;;9.20;99.90;;;;;;4936238;28;88920;-31
2022/10/31 08:26:05;;;;;;;36.80;21.25;;;9.30;99.90;;;;;;4936481;28;89241;-31
2022/10/31 08:28:31;;;;;;;27.63;21.38;;;9.40;99.90;;;;;;4936984;28;90348;-32
2022/10/31 08:30:58;;;;;;;35.75;19.92;;;9.40;99.90;;;;;;4936555;28;90100;-30
2022/10/31 08:33:24;;;;;;;29.02;21.40;;;9.50;99.90;;;;;;4936704;28;89900;-29
2022/10/31 08:35:50;;;;;;;25.05;20.65;;;9.50;99.90;;;;;;4935719;28;89144;-31
2022/10/31 08:38:15;;;;;;;26.63;21.60;;;9.60;99.90;;;;;;4936230;28;89756;-31
2022/10/31 08:40:41;;;;;;;25.73;22.85;;;9.60;99.90;;;;;;4936278;28;89342;-30
2022/10/31 08:43:11;;;;;;;26.25;23.13;;;9.70;99.90;;;;;;4936404;28;89400;-32
2022/10/31 08:45:37;;;;;;;27.98;24.52;;;9.80;99.90;;;;;;4936774;28;88969;-31
2022/10/31 08:48:05;;;;;;;31.35;24.90;;;10.00;99.90;;;;;;4936460;28;90022;-30
2022/10/31 08:50:33;;;;;;;28.98;25.90;;;10.10;99.90;;;;;;4927249;28;90275;-31
2022/10/31 08:53:08;;;;;;;30.40;27.20;;;10.30;99.90;;;;;;4936394;28;89641;-32
2022/10/31 08:55:35;;;;;;;33.40;26.83;;;10.40;99.90;;;;;;4936841;28;88472;-31
2022/10/31 08:58:01;;;;;;;29.83;26.30;;;10.50;99.90;;;;;;4935437;28;90668;-30
2022/10/31 09:00:27;;;;;;;27.80;24.98;;;10.60;99.90;;;;;;4935438;28;90325;-30
2022/10/31 09:03:01;;;;;;;25.33;22.63;;;10.70;99.90;;;;;;4936332;28;90180;-32
2022/10/31 09:05:27;;;;;;;33.85;27.10;;;10.80;99.90;;;;;;4938788;28;89830;-28
2022/10/31 09:07:57;;;;;;;31.60;26.15;;;10.90;99.90;;;;;;4939605;28;90189;-31
2022/10/31 09:10:23;;;;;;;32.40;25.08;;;11.00;99.90;;;;;;4939532;28;89730;-30
2022/10/31 09:12:56;;;;;;;33.97;28.40;;;11.10;99.90;;;;;;4939417;28;90168;-30
2022/10/31 09:15:21;;;;;;;33.97;28.50;;;11.20;99.90;;;;;;4939839;28;88492;-32
2022/10/31 09:17:48;;;;;;;31.80;25.52;;;11.30;99.90;;;;;;4938859;28;91050;-31
2022/10/31 09:20:13;;;;;;;28.50;24.05;;;11.40;99.90;;;;;;4937849;28;89919;-33
2022/10/31 09:22:39;;;;;;;37.05;26.40;;;11.50;99.90;;;;;;4939289;28;89718;-31
2022/10/31 09:25:05;;;;;;;28.50;25.55;;;11.60;99.90;;;;;;4939087;28;89965;-31
2022/10/31 09:27:30;;;;;;;33.33;29.15;;;11.70;99.90;;;;;;4939668;28;90341;-28
2022/10/31 09:29:56;;;;;;;31.83;26.02;;;11.80;99.90;;;;;;4938565;28;89697;-30
2022/10/31 09:32:21;;;;;;;38.35;28.48;;;11.80;99.90;;;;;;4939885;28;89550;-32
2022/10/31 09:34:47;;;;;;;30.63;25.60;;;11.90;99.90;;;;;;4939041;28;89593;-30
2022/10/31 09:37:12;;;;;;;33.70;27.35;;;12.00;99.90;;;;;;4938522;28;89206;-33
2022/10/31 09:39:38;;;;;;;32.70;26.75;;;12.00;99.90;;;;;;4939696;28;89741;-28
2022/10/31 09:42:34;;;;;;;36.80;29.52;;;12.10;99.90;;;;;;4938670;28;89632;-32
2022/10/31 09:45:12;;;;;;;30.83;25.75;;;12.10;99.90;;;;;;4937831;28;89472;-30
2022/10/31 09:48:12;;;;;;;30.55;24.60;;;12.20;99.90;;;;;;4937254;28;90660;-33
2022/10/31 09:50:50;;;;;;;33.17;26.58;;;12.20;99.90;;;;;;4937768;28;90553;-30
2022/10/31 09:53:42;;;;;;;36.75;28.75;;;12.30;99.90;;;;;;4938754;28;90359;-34
2022/10/31 09:56:12;;;;;;;33.20;28.15;;;12.40;99.90;;;;;;4939118;28;88485;-30
2022/10/31 09:58:43;;;;;;;35.72;30.65;;;12.50;99.90;;;;;;4939153;28;90712;-30
2022/10/31 10:01:27;;;;;;;37.72;31.13;;;12.60;99.90;;;;;;4939178;28;89686;-30
2022/10/31 10:03:58;;;;;;;45.15;29.88;;;12.70;99.90;;;;;;4938090;28;90419;-29
2022/10/31 10:06:28;;;;;;;39.17;30.75;;;12.80;99.90;;;;;;4938823;28;89313;-29
2022/10/31 10:08:55;;;;;;;38.33;31.27;;;12.90;99.90;;;;;;4939191;28;90395;-30
2022/10/31 10:11:45;;;;;;;40.25;29.73;;;13.00;99.90;;;;;;4938367;28;90001;-33
2022/10/31 10:14:15;;;;;;;34.40;28.63;;;13.10;99.90;;;;;;4938503;28;89700;-31
2022/10/31 10:16:57;;;;;;;41.47;28.48;;;13.20;99.90;;;;;;4937751;28;89905;-31
2022/10/31 10:19:23;;;;;;;39.13;26.25;;;13.20;99.90;;;;;;4939355;28;90085;-32
2022/10/31 10:22:03;;;;;;;33.75;29.17;;;13.30;99.90;;;;;;4938280;28;89448;-31
2022/10/31 10:24:44;;;;;;;39.80;28.42;;;13.40;99.90;;;;;;4938310;28;89850;-33
2022/10/31 10:27:36;;;;;;;29.13;24.48;;;13.50;99.90;;;;;;4939112;28;89272;-30
2022/10/31 10:30:25;;;;;;;36.28;25.98;;;13.60;99.90;;;;;;4938221;28;90438;-31
2022/10/31 10:33:28;;;;;;;31.95;24.73;;;13.70;99.90;;;;;;4930710;28;89525;-33
2022/10/31 10:35:58;;;;;;;32.45;24.35;;;13.80;99.90;;;;;;4933001;28;90037;-28
2022/10/31 10:38:26;;;;;;;33.72;25.35;;;13.90;99.90;;;;;;4938825;28;89308;-29
2022/10/31 10:40:53;;;;;;;29.42;23.08;;;14.00;99.90;;;;;;4937375;28;90075;-32
2022/10/31 10:43:36;;;;;;;25.08;20.83;;;14.10;99.90;;;;;;4935834;28;89741;-30
2022/10/31 10:49:10;;;;;;;25.33;21.25;;;14.30;99.90;;;;;;4938005;28;89459;-31
2022/10/31 10:51:55;;;;;;;26.48;20.77;;;14.30;99.90;;;;;;4937841;28;89434;-32
2022/10/31 10:54:31;;;;;;;24.80;20.52;;;14.30;99.90;;;;;;4938261;28;89740;-28
2022/10/31 10:57:20;;;;;;;26.25;19.40;;;14.40;99.90;;;;;;4938430;28;89957;-34
2022/10/31 10:59:46;;;;;;;28.65;20.30;;;14.40;99.90;;;;;;4918803;28;90034;-32
2022/10/31 11:02:22;;;;;;;20.77;18.55;;;14.50;99.90;;;;;;4937838;28;89822;-33
2022/10/31 11:04:51;;;;;;;34.35;17.42;;;14.50;99.90;;;;;;4937237;28;89312;-33
2022/10/31 11:07:17;;;;;;;30.25;19.92;;;14.60;99.90;;;;;;4937645;28;89614;-31
2022/10/31 11:09:43;;;;;;;41.22;22.63;;;14.70;99.90;;;;;;4937667;28;90277;-31
2022/10/31 11:12:28;;;;;;;31.90;22.40;;;14.70;99.90;;;;;;4937233;28;90151;-31
2022/10/31 11:14:59;;;;;;;30.67;23.27;;;14.80;99.90;;;;;;4936387;28;89691;-33
2022/10/31 11:17:35;;;;;;;26.08;19.98;;;14.80;99.90;;;;;;4937582;28;89681;-33
2022/10/31 11:20:13;;;;;;;28.92;19.52;;;14.90;99.90;;;;;;4938029;28;89633;-31
2022/10/31 11:22:41;;;;;;;24.60;19.08;;;14.90;99.90;;;;;;4938303;28;90100;-33
2022/10/31 11:25:19;;;;;;;25.05;19.02;;;14.90;99.90;;;;;;4937349;28;89678;-34
2022/10/31 11:27:46;;;;;;;28.52;19.27;;;14.90;99.90;;;;;;4936939;28;90004;-31
2022/10/31 11:30:14;;;;;;;22.42;18.02;;;14.80;99.90;;;;;;4936998;28;88310;-31
2022/10/31 11:32:50;;;;;;;32.17;19.63;;;14.80;99.90;;;;;;4937784;28;90168;-33
2022/10/31 11:35:18;;;;;;;27.58;20.27;;;14.80;99.90;;;;;;4937212;28;90643;-29
2022/10/31 11:37:46;;;;;;;24.57;19.10;;;14.80;99.90;;;;;;4936583;28;90509;-33
2022/10/31 11:40:19;;;;;;;23.83;17.47;;;14.70;99.90;;;;;;4936294;28;90565;-32
2022/10/31 11:42:45;;;;;;;25.10;18.05;;;14.80;99.90;;;;;;4937027;28;92115;-34
2022/10/31 11:45:37;;;;;;;26.85;20.65;;;14.80;99.90;;;;;;4937723;28;89764;-33
2022/10/31 11:48:18;;;;;;;28.30;19.65;;;14.80;99.90;;;;;;4934796;28;89511;-33
2022/10/31 11:50:49;;;;;;;28.48;20.65;;;14.70;99.90;;;;;;4936960;28;88098;-34
2022/10/31 11:53:18;;;;;;;29.00;19.35;;;14.80;99.90;;;;;;4937560;28;90882;-31
2022/10/31 11:55:45;;;;;;;27.85;22.75;;;14.80;99.90;;;;;;4937391;28;89893;-33
2022/10/31 11:58:21;;;;;;;29.70;19.47;;;14.90;99.90;;;;;;4937709;28;89808;-32
2022/10/31 12:00:52;;;;;;;30.35;22.15;;;14.90;99.90;;;;;;4936285;28;89491;-33
2022/10/31 12:03:33;;;;;;;24.75;19.63;;;14.90;99.90;;;;;;4937302;28;89972;-31
2022/10/31 12:06:15;;;;;;;30.45;21.73;;;15.00;99.90;;;;;;4936907;28;89395;-33
2022/10/31 12:08:42;;;;;;;23.13;19.25;;;15.00;99.90;;;;;;4937687;28;89370;-34
2022/10/31 12:11:29;;;;;;;28.05;20.23;;;15.00;99.90;;;;;;4937373;28;88970;-31
2022/10/31 12:14:17;;;;;;;31.23;20.92;;;15.00;99.90;;;;;;4937443;28;90669;-32
2022/10/31 12:16:52;;;;;;;;;;;15.10;99.90;;;;;;4937299;28;91475;-34
2022/10/31 12:19:25;;;;;;;32.95;22.45;;;15.10;99.90;;;;;;4939146;28;89374;-33
2022/10/31 12:21:57;;;;;;;26.80;20.02;;;15.10;99.90;;;;;;4936582;28;89139;-31
2022/10/31 12:24:46;;;;;;;24.80;17.95;;;15.10;99.90;;;;;;4936450;28;90271;-34
2022/10/31 12:27:14;;;;;;;27.90;22.05;;;15.20;99.90;;;;;;4935167;28;89982;-32
2022/10/31 12:29:55;;;;;;;;;;;15.20;99.90;;;;;;4937112;28;90563;-33
2022/10/31 12:32:29;;;;;;;24.50;17.02;;;15.20;99.90;;;;;;4938847;28;88448;-33
2022/10/31 12:35:06;;;;;;;28.05;16.48;;;15.20;99.90;;;;;;4936398;28;90950;-31
2022/10/31 12:37:49;;;;;;;21.37;18.07;;;15.30;99.90;;;;;;4935266;28;90065;-32
2022/10/31 12:40:30;;;;;;;22.85;17.05;;;15.40;99.90;;;;;;4939122;28;90635;-34
2022/10/31 12:43:29;;;;;;;28.23;18.75;;;15.50;99.90;;;;;;4939882;28;90002;-31
2022/10/31 12:45:56;;;;;;;24.52;18.75;;;15.40;99.90;;;;;;4940921;28;90739;-31
2022/10/31 12:48:41;;;;;;;21.65;15.73;;;15.40;99.90;;;;;;4941496;28;90484;-31
2022/10/31 12:51:15;;;;;;;21.38;17.05;;;15.40;99.90;;;;;;4940066;28;89251;-30